Terminal Aerodrome Forecast
Issued by NWS Springfield, MO

Home | Current Version | Previous Version | Text Only | Print | Product List | Glossary On
Versions: 1 2 3 4 5 6 7 8 9 10 11 12 13 14 15 16 17 18 19 20 21 22 23 24 25
000
FTUS43 KSGF 231720
TAFSGF
TAF
KSGF 231720Z 2318/2418 16014G24KT P6SM SCT200
     FM240300 18017G26KT P6SM FEW250 WS020/19045KT
     FM240900 21010G19KT P6SM FEW200
     FM241100 25010G18KT P6SM FEW100=

USA.gov is the U.S. government's official web portal to all federal, state and local government web resources and services.